sensor_id;sensor_type;location;lat;lon;timestamp;pressure;altitude;pressure_sealevel;temperature;humidity
18678;BME280;9469;51.114;13.914;2023-02-04T00:03:44;99044.97;;;4.01;100.00
18678;BME280;9469;51.114;13.914;2023-02-04T00:08:52;99070.88;;;4.14;100.00
18678;BME280;9469;51.114;13.914;2023-02-04T00:13:57;99078.66;;;3.99;100.00
18678;BME280;9469;51.114;13.914;2023-02-04T00:19:02;99113.53;;;4.11;100.00
18678;BME280;9469;51.114;13.914;2023-02-04T00:24:09;99132.56;;;3.97;100.00
18678;BME280;9469;51.114;13.914;2023-02-04T00:29:14;99144.88;;;3.91;100.00
18678;BME280;9469;51.114;13.914;2023-02-04T00:34:20;99171.44;;;3.68;100.00
18678;BME280;9469;51.114;13.914;2023-02-04T00:39:28;99174.94;;;3.74;100.00
18678;BME280;9469;51.114;13.914;2023-02-04T00:44:33;99199.75;;;3.61;100.00
18678;BME280;9469;51.114;13.914;2023-02-04T00:49:38;99222.06;;;3.37;100.00
18678;BME280;9469;51.114;13.914;2023-02-04T00:54:45;99248.72;;;3.29;100.00
18678;BME280;9469;51.114;13.914;2023-02-04T00:59:50;99256.53;;;3.40;100.00
18678;BME280;9469;51.114;13.914;2023-02-04T01:04:56;99285.00;;;3.43;100.00
18678;BME280;9469;51.114;13.914;2023-02-04T01:10:04;99298.06;;;3.38;100.00
18678;BME280;9469;51.114;13.914;2023-02-04T01:15:10;99314.41;;;3.40;100.00
18678;BME280;9469;51.114;13.914;2023-02-04T01:20:16;99322.31;;;3.12;100.00
18678;BME280;9469;51.114;13.914;2023-02-04T01:25:25;99338.34;;;3.11;100.00
18678;BME280;9469;51.114;13.914;2023-02-04T01:30:30;99367.81;;;3.13;100.00
18678;BME280;9469;51.114;13.914;2023-02-04T01:35:35;99372.25;;;2.96;100.00
18678;BME280;9469;51.114;13.914;2023-02-04T01:40:44;99388.91;;;2.89;100.00
18678;BME280;9469;51.114;13.914;2023-02-04T01:45:50;99407.38;;;2.78;100.00
18678;BME280;9469;51.114;13.914;2023-02-04T01:51:01;99410.56;;;2.80;100.00
18678;BME280;9469;51.114;13.914;2023-02-04T01:56:14;99433.69;;;2.55;100.00
18678;BME280;9469;51.114;13.914;2023-02-04T02:01:34;99452.75;;;2.50;100.00
18678;BME280;9469;51.114;13.914;2023-02-04T02:06:46;99473.63;;;2.22;100.00
18678;BME280;9469;51.114;13.914;2023-02-04T02:11:56;99511.75;;;2.25;100.00
18678;BME280;9469;51.114;13.914;2023-02-04T02:17:01;99502.97;;;2.19;100.00
18678;BME280;9469;51.114;13.914;2023-02-04T02:22:11;99532.63;;;2.19;100.00
18678;BME280;9469;51.114;13.914;2023-02-04T02:27:21;99540.72;;;2.18;100.00
18678;BME280;9469;51.114;13.914;2023-02-04T02:32:26;99557.06;;;2.32;100.00
18678;BME280;9469;51.114;13.914;2023-02-04T02:37:31;99574.09;;;1.99;100.00
18678;BME280;9469;51.114;13.914;2023-02-04T02:42:39;99585.72;;;2.22;100.00
18678;BME280;9469;51.114;13.914;2023-02-04T02:47:44;99615.00;;;2.07;100.00
18678;BME280;9469;51.114;13.914;2023-02-04T02:52:50;99633.94;;;2.09;100.00
18678;BME280;9469;51.114;13.914;2023-02-04T02:57:58;99653.28;;;1.96;100.00
18678;BME280;9469;51.114;13.914;2023-02-04T03:03:08;99656.59;;;1.92;100.00
18678;BME280;9469;51.114;13.914;2023-02-04T03:08:14;99673.16;;;2.04;100.00
18678;BME280;9469;51.114;13.914;2023-02-04T03:13:23;99686.25;;;2.22;100.00
18678;BME280;9469;51.114;13.914;2023-02-04T03:18:30;99695.03;;;2.16;100.00
18678;BME280;9469;51.114;13.914;2023-02-04T03:23:36;99714.13;;;2.23;100.00
18678;BME280;9469;51.114;13.914;2023-02-04T03:28:44;99733.59;;;2.15;100.00
18678;BME280;9469;51.114;13.914;2023-02-04T03:33:50;99753.44;;;1.93;100.00
18678;BME280;9469;51.114;13.914;2023-02-04T03:38:56;99768.81;;;2.08;100.00
18678;BME280;9469;51.114;13.914;2023-02-04T03:44:05;99789.72;;;1.78;100.00
18678;BME280;9469;51.114;13.914;2023-02-04T03:49:10;99821.75;;;2.05;100.00
18678;BME280;9469;51.114;13.914;2023-02-04T03:54:15;99829.41;;;2.06;100.00
18678;BME280;9469;51.114;13.914;2023-02-04T03:59:23;99838.06;;;1.89;100.00
18678;BME280;9469;51.114;13.914;2023-02-04T04:04:31;99867.78;;;1.83;100.00
18678;BME280;9469;51.114;13.914;2023-02-04T04:09:36;99871.84;;;2.03;100.00
18678;BME280;9469;51.114;13.914;2023-02-04T04:14:44;99888.97;;;1.81;100.00
18678;BME280;9469;51.114;13.914;2023-02-04T04:19:49;99905.53;;;1.82;100.00
18678;BME280;9469;51.114;13.914;2023-02-04T04:24:54;99913.66;;;1.98;100.00
18678;BME280;9469;51.114;13.914;2023-02-04T04:30:01;99940.31;;;1.95;100.00
18678;BME280;9469;51.114;13.914;2023-02-04T04:35:09;99951.03;;;1.69;100.00
18678;BME280;9469;51.114;13.914;2023-02-04T04:40:15;99968.84;;;1.92;100.00
18678;BME280;9469;51.114;13.914;2023-02-04T04:45:22;99981.38;;;1.90;100.00
18678;BME280;9469;51.114;13.914;2023-02-04T04:50:27;100004.13;;;2.21;100.00
18678;BME280;9469;51.114;13.914;2023-02-04T04:55:33;100016.44;;;2.20;100.00
18678;BME280;9469;51.114;13.914;2023-02-04T05:00:40;100029.31;;;2.03;100.00
18678;BME280;9469;51.114;13.914;2023-02-04T05:05:47;100039.09;;;1.83;100.00
18678;BME280;9469;51.114;13.914;2023-02-04T05:10:52;100048.00;;;1.82;100.00
18678;BME280;9469;51.114;13.914;2023-02-04T05:16:00;100057.19;;;1.98;100.00
18678;BME280;9469;51.114;13.914;2023-02-04T05:21:05;100068.22;;;1.75;100.00
18678;BME280;9469;51.114;13.914;2023-02-04T05:26:09;100079.59;;;1.56;100.00
18678;BME280;9469;51.114;13.914;2023-02-04T05:31:33;100086.84;;;1.61;100.00
18678;BME280;9469;51.114;13.914;2023-02-04T05:36:38;100090.06;;;1.69;100.00
18678;BME280;9469;51.114;13.914;2023-02-04T05:41:43;100102.00;;;1.52;100.00
18678;BME280;9469;51.114;13.914;2023-02-04T05:46:51;100113.50;;;1.58;100.00
18678;BME280;9469;51.114;13.914;2023-02-04T05:51:55;100134.22;;;1.72;100.00
18678;BME280;9469;51.114;13.914;2023-02-04T05:57:03;100143.56;;;1.55;100.00
18678;BME280;9469;51.114;13.914;2023-02-04T06:02:10;100163.56;;;1.50;100.00
18678;BME280;9469;51.114;13.914;2023-02-04T06:07:16;100182.13;;;1.41;100.00
18678;BME280;9469;51.114;13.914;2023-02-04T06:12:21;100200.69;;;1.33;100.00
18678;BME280;9469;51.114;13.914;2023-02-04T06:17:29;100208.97;;;1.43;100.00
18678;BME280;9469;51.114;13.914;2023-02-04T06:22:34;100229.38;;;1.15;100.00
18678;BME280;9469;51.114;13.914;2023-02-04T06:27:40;100240.22;;;1.25;100.00
18678;BME280;9469;51.114;13.914;2023-02-04T06:32:47;100249.91;;;1.25;100.00
18678;BME280;9469;51.114;13.914;2023-02-04T06:37:52;100254.75;;;1.28;100.00
18678;BME280;9469;51.114;13.914;2023-02-04T06:42:59;100272.72;;;1.31;100.00
18678;BME280;9469;51.114;13.914;2023-02-04T06:48:08;100270.50;;;1.02;100.00
18678;BME280;9469;51.114;13.914;2023-02-04T06:53:13;100285.78;;;0.92;100.00
18678;BME280;9469;51.114;13.914;2023-02-04T06:58:18;100304.78;;;1.20;100.00
18678;BME280;9469;51.114;13.914;2023-02-04T07:03:26;100312.00;;;1.18;100.00
18678;BME280;9469;51.114;13.914;2023-02-04T07:08:31;100317.69;;;1.28;100.00
18678;BME280;9469;51.114;13.914;2023-02-04T07:13:37;100328.16;;;1.21;100.00
18678;BME280;9469;51.114;13.914;2023-02-04T07:18:45;100331.81;;;1.47;100.00
18678;BME280;9469;51.114;13.914;2023-02-04T07:23:51;100349.56;;;1.44;100.00
18678;BME280;9469;51.114;13.914;2023-02-04T07:28:56;100347.53;;;1.40;100.00
18678;BME280;9469;51.114;13.914;2023-02-04T07:34:05;100350.56;;;1.24;100.00
18678;BME280;9469;51.114;13.914;2023-02-04T07:39:10;100344.72;;;1.41;100.00
18678;BME280;9469;51.114;13.914;2023-02-04T07:44:16;100352.78;;;1.40;100.00
18678;BME280;9469;51.114;13.914;2023-02-04T07:49:25;100358.63;;;1.62;100.00
18678;BME280;9469;51.114;13.914;2023-02-04T07:54:30;100372.97;;;1.46;100.00
18678;BME280;9469;51.114;13.914;2023-02-04T07:59:35;100367.31;;;1.62;100.00
18678;BME280;9469;51.114;13.914;2023-02-04T08:04:43;100381.03;;;2.03;100.00
18678;BME280;9469;51.114;13.914;2023-02-04T08:09:48;100397.28;;;2.51;100.00
18678;BME280;9469;51.114;13.914;2023-02-04T08:14:53;100403.56;;;2.44;100.00
18678;BME280;9469;51.114;13.914;2023-02-04T08:20:00;100422.63;;;2.00;100.00
18678;BME280;9469;51.114;13.914;2023-02-04T08:25:06;100434.75;;;1.94;100.00
18678;BME280;9469;51.114;13.914;2023-02-04T08:30:13;100438.38;;;1.74;100.00
18678;BME280;9469;51.114;13.914;2023-02-04T08:35:20;100455.53;;;1.76;100.00
18678;BME280;9469;51.114;13.914;2023-02-04T08:40:26;100460.16;;;2.27;100.00
18678;BME280;9469;51.114;13.914;2023-02-04T08:45:31;100464.19;;;1.77;100.00
18678;BME280;9469;51.114;13.914;2023-02-04T08:50:39;100475.50;;;2.36;100.00
18678;BME280;9469;51.114;13.914;2023-02-04T08:55:44;100483.00;;;3.03;100.00
18678;BME280;9469;51.114;13.914;2023-02-04T09:00:49;100492.84;;;3.27;100.00
18678;BME280;9469;51.114;13.914;2023-02-04T09:05:57;100503.72;;;2.86;100.00
18678;BME280;9469;51.114;13.914;2023-02-04T09:11:03;100501.44;;;3.47;100.00
18678;BME280;9469;51.114;13.914;2023-02-04T09:16:10;100512.41;;;2.87;100.00
18678;BME280;9469;51.114;13.914;2023-02-04T09:21:18;100523.59;;;2.24;100.00
18678;BME280;9469;51.114;13.914;2023-02-04T09:26:23;100549.41;;;2.00;100.00
18678;BME280;9469;51.114;13.914;2023-02-04T09:31:28;100538.34;;;2.51;100.00
18678;BME280;9469;51.114;13.914;2023-02-04T09:36:36;100546.41;;;2.69;100.00
18678;BME280;9469;51.114;13.914;2023-02-04T09:41:42;100557.09;;;2.15;100.00
18678;BME280;9469;51.114;13.914;2023-02-04T09:46:49;100565.22;;;2.46;100.00
18678;BME280;9469;51.114;13.914;2023-02-04T09:51:58;100569.44;;;2.47;100.00
18678;BME280;9469;51.114;13.914;2023-02-04T09:57:12;100575.22;;;3.08;100.00
18678;BME280;9469;51.114;13.914;2023-02-04T10:02:21;100589.03;;;2.84;100.00
18678;BME280;9469;51.114;13.914;2023-02-04T10:07:29;100592.78;;;3.34;100.00
18678;BME280;9469;51.114;13.914;2023-02-04T10:12:34;100599.16;;;2.87;100.00
18678;BME280;9469;51.114;13.914;2023-02-04T10:17:39;100600.41;;;3.48;100.00
18678;BME280;9469;51.114;13.914;2023-02-04T10:22:48;100601.53;;;3.08;100.00
18678;BME280;9469;51.114;13.914;2023-02-04T10:27:56;100596.13;;;3.60;100.00
18678;BME280;9469;51.114;13.914;2023-02-04T10:33:12;100597.22;;;3.84;100.00
18678;BME280;9469;51.114;13.914;2023-02-04T10:38:21;100592.59;;;4.42;100.00
18678;BME280;9469;51.114;13.914;2023-02-04T10:43:26;100597.69;;;5.47;98.49
18678;BME280;9469;51.114;13.914;2023-02-04T10:48:39;100603.03;;;4.30;100.00
18678;BME280;9469;51.114;13.914;2023-02-04T10:53:47;100611.72;;;4.62;100.00
18678;BME280;9469;51.114;13.914;2023-02-04T10:59:21;100612.56;;;4.31;100.00
18678;BME280;9469;51.114;13.914;2023-02-04T11:04:27;100615.56;;;3.53;100.00
18678;BME280;9469;51.114;13.914;2023-02-04T11:09:35;100616.38;;;3.53;100.00
18678;BME280;9469;51.114;13.914;2023-02-04T11:14:41;100612.25;;;4.15;100.00
18678;BME280;9469;51.114;13.914;2023-02-04T11:19:46;100609.91;;;5.05;100.00
18678;BME280;9469;51.114;13.914;2023-02-04T11:24:54;100611.66;;;4.13;100.00
18678;BME280;9469;51.114;13.914;2023-02-04T11:30:04;100617.03;;;4.56;97.52
18678;BME280;9469;51.114;13.914;2023-02-04T11:35:26;100622.53;;;5.22;94.17
18678;BME280;9469;51.114;13.914;2023-02-04T11:40:37;100624.16;;;5.41;92.12
18678;BME280;9469;51.114;13.914;2023-02-04T11:45:43;100612.22;;;6.04;91.57
18678;BME280;9469;51.114;13.914;2023-02-04T11:50:54;100626.56;;;5.06;90.59
18678;BME280;9469;51.114;13.914;2023-02-04T11:56:02;100623.22;;;5.35;89.72
18678;BME280;9469;51.114;13.914;2023-02-04T12:01:16;100631.47;;;5.57;90.99
18678;BME280;9469;51.114;13.914;2023-02-04T12:06:23;100631.19;;;4.61;95.06
18678;BME280;9469;51.114;13.914;2023-02-04T12:11:31;100628.59;;;3.86;100.00
18678;BME280;9469;51.114;13.914;2023-02-04T12:16:47;100635.19;;;4.70;100.00
18678;BME280;9469;51.114;13.914;2023-02-04T12:21:53;100630.09;;;4.44;100.00
18678;BME280;9469;51.114;13.914;2023-02-04T12:27:04;100631.75;;;6.03;95.16
18678;BME280;9469;51.114;13.914;2023-02-04T12:32:09;100635.34;;;6.50;93.02
18678;BME280;9469;51.114;13.914;2023-02-04T12:37:14;100637.22;;;5.72;85.87
18678;BME280;9469;51.114;13.914;2023-02-04T12:42:22;100637.22;;;5.36;86.22
18678;BME280;9469;51.114;13.914;2023-02-04T12:47:27;100647.00;;;5.11;84.13
18678;BME280;9469;51.114;13.914;2023-02-04T12:52:32;100633.84;;;5.65;85.78
18678;BME280;9469;51.114;13.914;2023-02-04T12:57:40;100643.84;;;5.02;87.83
18678;BME280;9469;51.114;13.914;2023-02-04T13:02:45;100647.16;;;5.52;86.11
18678;BME280;9469;51.114;13.914;2023-02-04T13:07:53;100655.03;;;5.58;85.29
18678;BME280;9469;51.114;13.914;2023-02-04T13:13:01;100662.38;;;4.89;84.56
18678;BME280;9469;51.114;13.914;2023-02-04T13:18:06;100661.22;;;4.85;84.09
18678;BME280;9469;51.114;13.914;2023-02-04T13:23:11;100665.66;;;4.60;85.43
18678;BME280;9469;51.114;13.914;2023-02-04T13:28:19;100665.94;;;4.52;88.57
18678;BME280;9469;51.114;13.914;2023-02-04T13:33:24;100671.91;;;5.15;86.24
18678;BME280;9469;51.114;13.914;2023-02-04T13:38:29;100683.91;;;5.35;85.50
18678;BME280;9469;51.114;13.914;2023-02-04T13:43:38;100685.97;;;4.53;87.55
18678;BME280;9469;51.114;13.914;2023-02-04T13:48:43;100691.41;;;4.26;89.14
18678;BME280;9469;51.114;13.914;2023-02-04T13:53:48;100695.38;;;4.04;93.28
18678;BME280;9469;51.114;13.914;2023-02-04T13:58:56;100686.78;;;4.53;90.86
18678;BME280;9469;51.114;13.914;2023-02-04T14:04:00;100690.91;;;4.43;88.42
18678;BME280;9469;51.114;13.914;2023-02-04T14:09:05;100684.22;;;4.09;89.46
18678;BME280;9469;51.114;13.914;2023-02-04T14:14:15;100688.25;;;3.47;93.02
18678;BME280;9469;51.114;13.914;2023-02-04T14:19:20;100698.97;;;3.59;93.84
18678;BME280;9469;51.114;13.914;2023-02-04T14:24:28;100704.72;;;3.94;92.67
18678;BME280;9469;51.114;13.914;2023-02-04T14:29:35;100699.28;;;3.89;93.42
18678;BME280;9469;51.114;13.914;2023-02-04T14:34:42;100699.41;;;4.07;94.71
18678;BME280;9469;51.114;13.914;2023-02-04T14:39:47;100700.97;;;3.70;96.66
18678;BME280;9469;51.114;13.914;2023-02-04T14:44:55;100699.16;;;3.64;97.82
18678;BME280;9469;51.114;13.914;2023-02-04T14:50:00;100698.44;;;4.39;96.57
18678;BME280;9469;51.114;13.914;2023-02-04T14:55:06;100699.31;;;3.76;98.46
18678;BME280;9469;51.114;13.914;2023-02-04T15:00:18;100708.97;;;3.95;97.49
18678;BME280;9469;51.114;13.914;2023-02-04T15:05:23;100698.97;;;4.10;98.08
18678;BME280;9469;51.114;13.914;2023-02-04T15:10:28;100701.91;;;4.33;97.38
18678;BME280;9469;51.114;13.914;2023-02-04T15:15:36;100696.09;;;4.24;96.86
18678;BME280;9469;51.114;13.914;2023-02-04T15:20:41;100703.13;;;4.30;96.93
18678;BME280;9469;51.114;13.914;2023-02-04T15:25:46;100694.69;;;4.22;96.69
18678;BME280;9469;51.114;13.914;2023-02-04T15:30:55;100703.13;;;3.93;96.37
18678;BME280;9469;51.114;13.914;2023-02-04T15:36:00;100688.72;;;3.95;95.47
18678;BME280;9469;51.114;13.914;2023-02-04T15:41:05;100699.94;;;3.78;94.59
18678;BME280;9469;51.114;13.914;2023-02-04T15:46:13;100706.47;;;4.13;93.88
18678;BME280;9469;51.114;13.914;2023-02-04T15:51:18;100713.28;;;3.76;94.06
18678;BME280;9469;51.114;13.914;2023-02-04T15:56:23;100711.72;;;3.55;95.02
18678;BME280;9469;51.114;13.914;2023-02-04T16:01:33;100718.75;;;3.75;94.58
18678;BME280;9469;51.114;13.914;2023-02-04T16:06:39;100723.66;;;3.51;93.61
18678;BME280;9469;51.114;13.914;2023-02-04T16:11:59;100723.09;;;3.36;92.55
18678;BME280;9469;51.114;13.914;2023-02-04T16:17:07;100722.66;;;3.39;92.25
18678;BME280;9469;51.114;13.914;2023-02-04T16:22:12;100737.66;;;3.26;91.54
18678;BME280;9469;51.114;13.914;2023-02-04T16:27:17;100731.78;;;3.17;91.98
18678;BME280;9469;51.114;13.914;2023-02-04T16:32:25;100738.28;;;3.34;90.45
18678;BME280;9469;51.114;13.914;2023-02-04T16:37:30;100752.84;;;3.04;91.31
18678;BME280;9469;51.114;13.914;2023-02-04T16:42:36;100745.94;;;3.03;89.54
18678;BME280;9469;51.114;13.914;2023-02-04T16:47:43;100754.84;;;3.22;89.41
18678;BME280;9469;51.114;13.914;2023-02-04T16:52:50;100761.53;;;3.31;89.81
18678;BME280;9469;51.114;13.914;2023-02-04T16:57:58;100773.88;;;3.30;89.92
18678;BME280;9469;51.114;13.914;2023-02-04T17:03:06;100774.91;;;3.16;90.17
18678;BME280;9469;51.114;13.914;2023-02-04T17:08:11;100771.03;;;3.06;91.19
18678;BME280;9469;51.114;13.914;2023-02-04T17:13:17;100773.44;;;2.94;91.70
18678;BME280;9469;51.114;13.914;2023-02-04T17:18:25;100774.63;;;2.85;91.87
18678;BME280;9469;51.114;13.914;2023-02-04T17:23:30;100775.28;;;2.87;92.36
18678;BME280;9469;51.114;13.914;2023-02-04T17:28:36;100777.50;;;3.03;92.56
18678;BME280;9469;51.114;13.914;2023-02-04T17:33:44;100790.94;;;2.54;93.52
18678;BME280;9469;51.114;13.914;2023-02-04T17:38:52;100802.34;;;2.81;93.78
18678;BME280;9469;51.114;13.914;2023-02-04T17:43:57;100793.97;;;2.51;94.67
18678;BME280;9469;51.114;13.914;2023-02-04T17:49:06;100793.09;;;2.38;93.95
18678;BME280;9469;51.114;13.914;2023-02-04T17:54:13;100791.25;;;2.25;94.62
18678;BME280;9469;51.114;13.914;2023-02-04T17:59:18;100798.34;;;2.38;94.49
18678;BME280;9469;51.114;13.914;2023-02-04T18:04:26;100793.84;;;2.18;94.78
18678;BME280;9469;51.114;13.914;2023-02-04T18:09:31;100794.63;;;2.12;94.19
18678;BME280;9469;51.114;13.914;2023-02-04T18:14:36;100800.28;;;2.16;95.04
18678;BME280;9469;51.114;13.914;2023-02-04T18:19:45;100805.84;;;2.41;94.77
18678;BME280;9469;51.114;13.914;2023-02-04T18:24:50;100810.09;;;2.42;95.33
18678;BME280;9469;51.114;13.914;2023-02-04T18:29:57;100811.28;;;2.33;95.88
18678;BME280;9469;51.114;13.914;2023-02-04T18:35:24;100809.44;;;2.33;96.67
18678;BME280;9469;51.114;13.914;2023-02-04T18:40:40;100800.22;;;2.03;96.99
18678;BME280;9469;51.114;13.914;2023-02-04T18:45:45;100788.91;;;1.68;98.94
18678;BME280;9469;51.114;13.914;2023-02-04T18:50:53;100798.28;;;1.56;98.97
18678;BME280;9469;51.114;13.914;2023-02-04T18:56:00;100787.41;;;1.31;98.73
18678;BME280;9469;51.114;13.914;2023-02-04T19:01:13;100790.97;;;1.52;99.13
18678;BME280;9469;51.114;13.914;2023-02-04T19:06:31;100798.63;;;1.74;98.29
18678;BME280;9469;51.114;13.914;2023-02-04T19:11:39;100801.16;;;1.89;96.79
18678;BME280;9469;51.114;13.914;2023-02-04T19:16:45;100810.81;;;1.88;96.37
18678;BME280;9469;51.114;13.914;2023-02-04T19:21:54;100822.19;;;1.40;98.35
18678;BME280;9469;51.114;13.914;2023-02-04T19:27:14;100830.16;;;1.53;99.26
18678;BME280;9469;51.114;13.914;2023-02-04T19:32:25;100829.59;;;1.85;98.49
18678;BME280;9469;51.114;13.914;2023-02-04T19:37:38;100829.44;;;1.66;98.76
18678;BME280;9469;51.114;13.914;2023-02-04T19:42:45;100840.34;;;1.63;99.20
18678;BME280;9469;51.114;13.914;2023-02-04T19:47:52;100848.22;;;0.63;99.75
18678;BME280;9469;51.114;13.914;2023-02-04T19:53:02;100851.09;;;0.68;97.79
18678;BME280;9469;51.114;13.914;2023-02-04T19:58:17;100868.19;;;0.50;96.83
18678;BME280;9469;51.114;13.914;2023-02-04T20:03:34;100854.78;;;0.38;94.96
18678;BME280;9469;51.114;13.914;2023-02-04T20:08:44;100860.78;;;0.39;93.81
18678;BME280;9469;51.114;13.914;2023-02-04T20:13:54;100863.97;;;0.34;93.79
18678;BME280;9469;51.114;13.914;2023-02-04T20:19:01;100873.28;;;0.22;93.73
18678;BME280;9469;51.114;13.914;2023-02-04T20:24:12;100874.34;;;0.28;94.28
18678;BME280;9469;51.114;13.914;2023-02-04T20:29:21;100891.59;;;0.22;93.94
18678;BME280;9469;51.114;13.914;2023-02-04T20:34:27;100888.03;;;0.59;92.74
18678;BME280;9469;51.114;13.914;2023-02-04T20:39:39;100899.53;;;0.29;91.67
18678;BME280;9469;51.114;13.914;2023-02-04T20:44:47;100903.06;;;0.36;91.30
18678;BME280;9469;51.114;13.914;2023-02-04T20:49:56;100910.53;;;0.39;90.78
18678;BME280;9469;51.114;13.914;2023-02-04T20:55:18;100912.69;;;0.21;91.69
18678;BME280;9469;51.114;13.914;2023-02-04T21:00:28;100931.75;;;0.15;91.99
18678;BME280;9469;51.114;13.914;2023-02-04T21:05:35;100932.63;;;0.07;91.72
18678;BME280;9469;51.114;13.914;2023-02-04T21:10:43;100945.50;;;-0.06;92.54
18678;BME280;9469;51.114;13.914;2023-02-04T21:15:48;100944.03;;;-0.23;92.35
18678;BME280;9469;51.114;13.914;2023-02-04T21:20:54;100953.16;;;-0.19;92.15
18678;BME280;9469;51.114;13.914;2023-02-04T21:26:03;100945.91;;;-0.32;92.65
18678;BME280;9469;51.114;13.914;2023-02-04T21:31:08;100955.38;;;-0.31;93.45
18678;BME280;9469;51.114;13.914;2023-02-04T21:36:13;100970.19;;;-0.23;93.37
18678;BME280;9469;51.114;13.914;2023-02-04T21:41:22;100959.50;;;-0.36;94.03
18678;BME280;9469;51.114;13.914;2023-02-04T21:46:27;100962.78;;;-0.42;94.04
18678;BME280;9469;51.114;13.914;2023-02-04T21:51:31;100963.44;;;-0.40;94.63
18678;BME280;9469;51.114;13.914;2023-02-04T21:56:39;100962.28;;;-0.38;94.68
18678;BME280;9469;51.114;13.914;2023-02-04T22:01:44;100965.41;;;-0.42;95.36
18678;BME280;9469;51.114;13.914;2023-02-04T22:06:50;100956.47;;;-0.48;95.49
18678;BME280;9469;51.114;13.914;2023-02-04T22:11:59;100950.72;;;-0.43;96.13
18678;BME280;9469;51.114;13.914;2023-02-04T22:17:05;100963.09;;;-0.60;96.51
18678;BME280;9469;51.114;13.914;2023-02-04T22:22:11;100958.78;;;-0.53;95.04
18678;BME280;9469;51.114;13.914;2023-02-04T22:27:21;100971.03;;;-0.53;94.31
18678;BME280;9469;51.114;13.914;2023-02-04T22:32:26;100971.88;;;-0.53;94.61
18678;BME280;9469;51.114;13.914;2023-02-04T22:37:31;100977.94;;;-0.60;94.13
18678;BME280;9469;51.114;13.914;2023-02-04T22:42:39;100982.94;;;-0.74;93.94
18678;BME280;9469;51.114;13.914;2023-02-04T22:47:44;100986.88;;;-0.78;93.70
18678;BME280;9469;51.114;13.914;2023-02-04T22:52:49;100979.19;;;-0.79;93.94
18678;BME280;9469;51.114;13.914;2023-02-04T22:57:57;100969.91;;;-0.82;94.51
18678;BME280;9469;51.114;13.914;2023-02-04T23:03:03;100979.44;;;-0.97;95.38
18678;BME280;9469;51.114;13.914;2023-02-04T23:08:08;100976.50;;;-0.94;95.81
18678;BME280;9469;51.114;13.914;2023-02-04T23:13:19;100987.41;;;-0.90;95.98
18678;BME280;9469;51.114;13.914;2023-02-04T23:18:24;100990.41;;;-1.01;96.36
18678;BME280;9469;51.114;13.914;2023-02-04T23:23:29;100993.88;;;-1.09;96.47
18678;BME280;9469;51.114;13.914;2023-02-04T23:28:37;100994.53;;;-1.15;97.08
18678;BME280;9469;51.114;13.914;2023-02-04T23:33:42;100997.00;;;-1.13;96.71
18678;BME280;9469;51.114;13.914;2023-02-04T23:38:48;100994.91;;;-1.26;96.80
18678;BME280;9469;51.114;13.914;2023-02-04T23:43:56;101004.72;;;-1.28;97.02
18678;BME280;9469;51.114;13.914;2023-02-04T23:49:04;101004.72;;;-1.28;97.20
18678;BME280;9469;51.114;13.914;2023-02-04T23:54:10;101002.81;;;-1.50;97.72
18678;BME280;9469;51.114;13.914;2023-02-04T23:59:20;100996.09;;;-1.36;97.78
